Time;durP1;ratioP1;P1;durP2;ratioP2;P2;SDS_P1;SDS_P2;PMS_P1;PMS_P2;Temp;Humidity;BMP_temperature;BMP_pressure;BME280_temperature;BME280_humidity;BME280_pressure;Samples;Min_cycle;Max_cycle;Signal;HPM_P1;HPM_P2
2023/08/28 00:00:26;;;;;;;18.98;3.30;;;;;;;;;;4991044;28;20821;-79
2023/08/28 00:02:54;;;;;;;16.80;2.90;;;;;;;;;;4981758;28;20412;-80
2023/08/28 00:05:21;;;;;;;16.38;2.90;;;;;;;;;;4981290;28;20422;-78
2023/08/28 00:07:47;;;;;;;16.30;2.80;;;;;;;;;;4968969;28;20883;-80
2023/08/28 00:10:14;;;;;;;15.50;2.83;;;;;;;;;;4982400;28;20418;-79
2023/08/28 00:12:43;;;;;;;15.63;2.75;;;;;;;;;;4980913;28;20455;-78
2023/08/28 00:15:10;;;;;;;17.38;2.85;;;;;;;;;;4981766;28;20444;-79
2023/08/28 00:17:37;;;;;;;15.50;2.70;;;;;;;;;;4979710;28;20411;-78
2023/08/28 00:20:07;;;;;;;16.35;3.03;;;;;;;;;;4986956;28;20418;-80
2023/08/28 00:22:34;;;;;;;15.70;2.85;;;;;;;;;;5009373;28;20412;-79
2023/08/28 00:25:01;;;;;;;16.80;2.90;;;;;;;;;;4983121;28;20879;-79
2023/08/28 00:27:28;;;;;;;15.40;2.65;;;;;;;;;;4985613;28;20780;-78
2023/08/28 00:29:56;;;;;;;15.18;2.38;;;;;;;;;;4989673;28;20490;-78
2023/08/28 00:32:24;;;;;;;16.90;3.10;;;;;;;;;;4997775;28;20507;-79
2023/08/28 00:34:51;;;;;;;15.40;2.40;;;;;;;;;;4984629;28;20432;-79
2023/08/28 00:37:17;;;;;;;15.98;2.60;;;;;;;;;;4981534;28;20444;-79
2023/08/28 00:39:44;;;;;;;16.20;3.20;;;;;;;;;;4981518;28;20465;-79
2023/08/28 00:42:11;;;;;;;16.23;3.00;;;;;;;;;;4989962;28;20414;-80
2023/08/28 00:44:37;;;;;;;15.80;2.90;;;;;;;;;;4982226;28;20456;-78
2023/08/28 00:47:06;;;;;;;16.80;3.10;;;;;;;;;;4973091;28;20430;-78
2023/08/28 00:49:33;;;;;;;17.20;3.10;;;;;;;;;;4981558;28;20519;-80
2023/08/28 00:52:00;;;;;;;15.35;2.58;;;;;;;;;;5005472;28;20745;-79
2023/08/28 00:54:27;;;;;;;17.87;2.90;;;;;;;;;;4979962;28;20555;-78
2023/08/28 00:56:54;;;;;;;15.80;2.70;;;;;;;;;;4984944;28;20403;-79
2023/08/28 00:59:21;;;;;;;17.50;3.90;;;;;;;;;;4983980;28;20415;-78
2023/08/28 01:01:48;;;;;;;15.90;2.70;;;;;;;;;;4990676;28;20446;-78
2023/08/28 01:04:16;;;;;;;16.77;3.20;;;;;;;;;;4989530;28;20420;-79
2023/08/28 01:06:45;;;;;;;17.05;2.97;;;;;;;;;;4997577;28;20455;-80
2023/08/28 01:09:15;;;;;;;15.98;2.97;;;;;;;;;;4974906;28;20781;-78
2023/08/28 01:11:46;;;;;;;16.77;2.85;;;;;;;;;;4981739;28;20421;-79
2023/08/28 01:14:15;;;;;;;16.93;3.30;;;;;;;;;;4982046;28;20475;-79
2023/08/28 01:16:43;;;;;;;17.60;3.20;;;;;;;;;;4983863;28;20421;-80
2023/08/28 01:19:14;;;;;;;15.23;2.80;;;;;;;;;;4979979;28;20412;-81
2023/08/28 01:21:44;;;;;;;15.50;2.80;;;;;;;;;;4977110;28;20416;-77
2023/08/28 01:24:12;;;;;;;17.65;2.83;;;;;;;;;;4991133;28;20848;-79
2023/08/28 01:26:40;;;;;;;17.00;3.20;;;;;;;;;;4981123;28;20486;-77
2023/08/28 01:29:07;;;;;;;16.53;2.80;;;;;;;;;;4998936;28;20451;-80
2023/08/28 01:31:34;;;;;;;16.00;2.90;;;;;;;;;;4988790;28;20955;-76
2023/08/28 01:34:01;;;;;;;17.70;2.88;;;;;;;;;;4982293;28;20420;-78
2023/08/28 01:36:31;;;;;;;16.92;3.03;;;;;;;;;;4989317;28;20429;-78
2023/08/28 01:38:58;;;;;;;15.70;2.80;;;;;;;;;;4984866;28;20425;-78
2023/08/28 01:41:26;;;;;;;16.10;2.70;;;;;;;;;;4977326;28;20419;-79
2023/08/28 01:43:57;;;;;;;15.48;2.78;;;;;;;;;;4989048;28;20503;-79
2023/08/28 01:46:24;;;;;;;16.17;2.70;;;;;;;;;;4978402;28;20509;-79
2023/08/28 01:48:53;;;;;;;17.53;2.70;;;;;;;;;;4986334;28;20497;-78
2023/08/28 01:51:22;;;;;;;15.65;3.13;;;;;;;;;;4978799;28;20406;-78
2023/08/28 01:53:49;;;;;;;16.98;3.13;;;;;;;;;;4983557;28;20964;-79
2023/08/28 01:56:17;;;;;;;16.50;3.22;;;;;;;;;;4982611;28;20414;-79
2023/08/28 01:58:45;;;;;;;16.58;3.42;;;;;;;;;;4989874;28;20414;-78
2023/08/28 02:01:13;;;;;;;17.02;3.38;;;;;;;;;;4989943;28;20947;-79
2023/08/28 02:03:40;;;;;;;19.30;3.70;;;;;;;;;;4981726;28;20944;-80
2023/08/28 02:06:07;;;;;;;17.10;3.50;;;;;;;;;;4980135;28;20432;-80
2023/08/28 02:08:35;;;;;;;16.73;3.53;;;;;;;;;;4983350;28;20451;-80
2023/08/28 02:11:02;;;;;;;18.48;3.58;;;;;;;;;;5010794;28;20430;-80
2023/08/28 02:13:28;;;;;;;16.55;3.15;;;;;;;;;;4989472;28;20415;-79
2023/08/28 02:15:56;;;;;;;16.80;3.70;;;;;;;;;;4989808;28;20406;-80
2023/08/28 02:18:24;;;;;;;18.13;3.60;;;;;;;;;;5016749;28;20422;-80
2023/08/28 02:20:51;;;;;;;16.45;3.40;;;;;;;;;;4982125;28;20929;-79
2023/08/28 02:23:17;;;;;;;16.50;3.33;;;;;;;;;;4989197;28;20773;-79
2023/08/28 02:25:46;;;;;;;16.37;3.70;;;;;;;;;;4981798;28;20194;-80
2023/08/28 02:28:12;;;;;;;17.30;3.67;;;;;;;;;;4984319;28;20475;-81
2023/08/28 02:30:39;;;;;;;15.10;2.97;;;;;;;;;;5003076;28;20203;-80
2023/08/28 02:33:06;;;;;;;15.03;2.40;;;;;;;;;;4981037;28;20804;-80
2023/08/28 02:35:34;;;;;;;17.90;3.90;;;;;;;;;;4981659;28;20421;-80
2023/08/28 02:38:01;;;;;;;17.30;3.72;;;;;;;;;;4981357;28;20427;-78
2023/08/28 02:40:27;;;;;;;;;;;;;;;;;;4984253;28;20050;-80
2023/08/28 02:42:55;;;;;;;18.42;3.72;;;;;;;;;;5010704;28;20454;-79
2023/08/28 02:45:22;;;;;;;18.53;4.00;;;;;;;;;;4987872;28;20473;-80
2023/08/28 02:47:51;;;;;;;17.92;4.03;;;;;;;;;;4999274;28;20789;-80
2023/08/28 02:50:17;;;;;;;17.33;4.00;;;;;;;;;;5012217;28;20511;-79
2023/08/28 02:52:45;;;;;;;17.13;3.67;;;;;;;;;;4987513;28;20415;-80
2023/08/28 02:55:12;;;;;;;17.85;4.28;;;;;;;;;;4978220;28;20415;-80
2023/08/28 02:57:39;;;;;;;19.23;4.25;;;;;;;;;;4987304;28;20414;-80
2023/08/28 03:00:06;;;;;;;18.90;4.00;;;;;;;;;;5002314;28;20746;-81
2023/08/28 03:02:33;;;;;;;18.35;4.00;;;;;;;;;;4991417;28;20472;-80
2023/08/28 03:05:00;;;;;;;17.50;4.03;;;;;;;;;;4999784;28;20470;-80
2023/08/28 03:07:27;;;;;;;17.88;3.92;;;;;;;;;;4983999;28;20555;-80
2023/08/28 03:09:55;;;;;;;20.00;4.63;;;;;;;;;;4987468;28;20408;-81
2023/08/28 03:12:22;;;;;;;18.55;3.72;;;;;;;;;;4985994;28;20810;-80
2023/08/28 03:14:48;;;;;;;21.13;4.50;;;;;;;;;;4981294;28;20427;-81
2023/08/28 03:17:15;;;;;;;17.60;3.50;;;;;;;;;;4987228;28;20425;-80
2023/08/28 03:19:42;;;;;;;16.83;3.92;;;;;;;;;;4987875;28;20416;-80
2023/08/28 03:22:10;;;;;;;20.20;4.60;;;;;;;;;;4997842;28;20467;-81
2023/08/28 03:24:36;;;;;;;17.70;4.30;;;;;;;;;;4986534;28;20421;-80
2023/08/28 03:27:04;;;;;;;17.73;4.40;;;;;;;;;;4990944;28;20433;-79
2023/08/28 03:29:31;;;;;;;17.90;4.38;;;;;;;;;;4984053;28;20501;-78
2023/08/28 03:31:58;;;;;;;18.70;5.00;;;;;;;;;;4980521;28;20424;-82
2023/08/28 03:34:25;;;;;;;19.73;4.97;;;;;;;;;;4981023;28;20524;-79
2023/08/28 03:36:51;;;;;;;18.98;5.10;;;;;;;;;;4983977;28;20410;-79
2023/08/28 03:39:18;;;;;;;19.90;5.90;;;;;;;;;;4991696;28;20427;-80
2023/08/28 03:41:45;;;;;;;20.83;5.30;;;;;;;;;;4992326;28;20786;-81
2023/08/28 03:44:13;;;;;;;18.95;4.72;;;;;;;;;;4998475;28;20763;-78
2023/08/28 03:46:40;;;;;;;18.65;4.72;;;;;;;;;;4991553;28;20426;-81
2023/08/28 03:49:07;;;;;;;19.73;5.40;;;;;;;;;;4981091;28;20428;-80
2023/08/28 03:51:33;;;;;;;21.48;4.63;;;;;;;;;;4983813;28;20410;-82
2023/08/28 03:54:01;;;;;;;18.70;4.30;;;;;;;;;;4983107;28;20429;-80
2023/08/28 03:56:29;;;;;;;18.55;3.90;;;;;;;;;;4980112;28;20408;-80
2023/08/28 03:58:56;;;;;;;17.08;3.53;;;;;;;;;;5004415;28;20913;-78
2023/08/28 04:01:24;;;;;;;16.85;3.50;;;;;;;;;;4990307;28;20429;-81
2023/08/28 04:03:52;;;;;;;17.25;3.40;;;;;;;;;;4989184;28;20488;-81
2023/08/28 04:06:19;;;;;;;19.13;3.60;;;;;;;;;;4982456;28;20449;-80
2023/08/28 04:08:46;;;;;;;16.35;3.40;;;;;;;;;;4992208;28;20418;-80
2023/08/28 04:11:12;;;;;;;15.70;3.30;;;;;;;;;;5011312;28;20471;-80
2023/08/28 04:13:41;;;;;;;16.85;3.63;;;;;;;;;;4971898;28;20471;-80
2023/08/28 04:16:08;;;;;;;16.40;3.58;;;;;;;;;;4991605;28;20420;-81
2023/08/28 04:18:36;;;;;;;17.55;3.70;;;;;;;;;;4991209;28;20787;-81
2023/08/28 04:21:03;;;;;;;18.90;4.10;;;;;;;;;;4989841;28;20432;-81
2023/08/28 04:23:30;;;;;;;17.23;3.85;;;;;;;;;;4982389;28;20785;-81
2023/08/28 04:26:00;;;;;;;20.90;6.00;;;;;;;;;;4964871;28;20996;-81
2023/08/28 04:28:29;;;;;;;21.27;5.50;;;;;;;;;;4989291;28;20999;-82
2023/08/28 04:30:57;;;;;;;21.20;5.65;;;;;;;;;;4991473;28;20420;-81
2023/08/28 04:33:24;;;;;;;18.83;5.72;;;;;;;;;;5012857;28;20471;-81
2023/08/28 04:35:53;;;;;;;19.80;5.18;;;;;;;;;;4983827;28;20427;-82
2023/08/28 04:38:20;;;;;;;19.70;5.00;;;;;;;;;;4986742;28;20416;-81
2023/08/28 04:40:46;;;;;;;21.77;4.93;;;;;;;;;;4980303;28;20436;-82
2023/08/28 04:43:13;;;;;;;18.17;5.03;;;;;;;;;;4990105;28;20438;-82
2023/08/28 04:45:40;;;;;;;19.38;5.43;;;;;;;;;;4987453;28;20911;-81
2023/08/28 04:48:06;;;;;;;18.10;4.80;;;;;;;;;;4982482;28;20896;-82
2023/08/28 04:50:33;;;;;;;18.27;4.80;;;;;;;;;;4989516;28;20514;-81
2023/08/28 04:53:01;;;;;;;18.15;5.00;;;;;;;;;;4979339;28;20419;-82
2023/08/28 04:55:28;;;;;;;18.00;4.68;;;;;;;;;;4985375;28;20414;-81
2023/08/28 04:57:55;;;;;;;18.70;4.70;;;;;;;;;;4963751;28;20906;-82
2023/08/28 05:00:22;;;;;;;20.20;4.50;;;;;;;;;;4982528;28;20479;-81
2023/08/28 05:02:48;;;;;;;18.30;4.50;;;;;;;;;;4989443;28;20410;-82
2023/08/28 05:05:15;;;;;;;16.90;4.30;;;;;;;;;;5017875;28;21054;-82
2023/08/28 05:07:42;;;;;;;18.03;4.23;;;;;;;;;;4978073;28;20440;-81
2023/08/28 05:10:10;;;;;;;17.33;4.00;;;;;;;;;;5013613;28;20631;-81
2023/08/28 05:12:37;;;;;;;16.83;3.60;;;;;;;;;;4990567;28;20985;-81
2023/08/28 05:15:05;;;;;;;19.13;4.60;;;;;;;;;;4988873;28;20427;-80
2023/08/28 05:17:31;;;;;;;17.83;4.20;;;;;;;;;;4990020;28;20413;-81
2023/08/28 05:19:58;;;;;;;19.00;4.50;;;;;;;;;;5007732;28;20435;-82
2023/08/28 05:22:25;;;;;;;19.67;5.20;;;;;;;;;;5015453;28;20456;-80
2023/08/28 05:24:52;;;;;;;18.27;4.63;;;;;;;;;;4973003;28;20411;-81
2023/08/28 05:27:20;;;;;;;18.08;4.10;;;;;;;;;;4990072;28;20418;-82
2023/08/28 05:29:47;;;;;;;19.80;4.60;;;;;;;;;;4982758;28;20402;-80
2023/08/28 05:32:14;;;;;;;19.45;3.90;;;;;;;;;;4989332;28;20423;-81
2023/08/28 05:34:41;;;;;;;16.90;3.78;;;;;;;;;;5005514;28;20420;-80
2023/08/28 05:37:08;;;;;;;18.23;4.10;;;;;;;;;;5010916;28;20547;-80
2023/08/28 05:39:35;;;;;;;16.88;4.00;;;;;;;;;;4985635;28;20471;-80
2023/08/28 05:42:02;;;;;;;17.45;3.90;;;;;;;;;;4988092;28;20763;-80
2023/08/28 05:44:31;;;;;;;17.77;4.23;;;;;;;;;;4980315;28;20442;-80
2023/08/28 05:46:58;;;;;;;18.02;4.20;;;;;;;;;;4987550;28;20435;-80
2023/08/28 05:49:26;;;;;;;17.05;3.88;;;;;;;;;;4983791;28;20931;-80
2023/08/28 05:51:52;;;;;;;18.15;4.20;;;;;;;;;;4976592;28;20426;-81
2023/08/28 05:54:19;;;;;;;17.88;4.50;;;;;;;;;;5011009;28;20517;-81
2023/08/28 05:56:46;;;;;;;18.00;4.70;;;;;;;;;;4982764;28;20412;-79
2023/08/28 05:59:13;;;;;;;18.38;4.57;;;;;;;;;;4985780;28;20418;-82
2023/08/28 06:01:41;;;;;;;19.25;4.90;;;;;;;;;;4989475;28;20426;-79
2023/08/28 06:04:08;;;;;;;21.10;4.90;;;;;;;;;;4982139;28;20408;-79
2023/08/28 06:06:36;;;;;;;20.70;4.80;;;;;;;;;;4988944;28;20964;-81
2023/08/28 06:09:04;;;;;;;20.52;5.40;;;;;;;;;;4986432;28;20807;-79
2023/08/28 06:11:30;;;;;;;18.70;4.80;;;;;;;;;;4980326;28;20425;-80
2023/08/28 06:13:58;;;;;;;20.25;5.85;;;;;;;;;;4983669;28;20474;-80
2023/08/28 06:16:25;;;;;;;19.35;5.70;;;;;;;;;;4988284;28;20911;-80
2023/08/28 06:18:54;;;;;;;20.25;5.70;;;;;;;;;;4977739;28;20423;-80
2023/08/28 06:21:23;;;;;;;19.70;5.67;;;;;;;;;;4971467;28;20473;-80
2023/08/28 06:23:49;;;;;;;18.52;5.18;;;;;;;;;;4982539;28;20448;-81
2023/08/28 06:26:17;;;;;;;20.13;5.28;;;;;;;;;;4987308;28;20434;-79
2023/08/28 06:28:43;;;;;;;19.88;5.90;;;;;;;;;;4982719;28;20450;-79
2023/08/28 06:31:11;;;;;;;18.50;5.03;;;;;;;;;;5015235;28;20790;-80
2023/08/28 06:33:38;;;;;;;18.50;5.13;;;;;;;;;;5012690;28;20418;-80
2023/08/28 06:36:06;;;;;;;20.08;5.47;;;;;;;;;;4986578;28;20480;-80
2023/08/28 06:38:33;;;;;;;19.30;5.55;;;;;;;;;;4980051;28;20410;-80
2023/08/28 06:41:01;;;;;;;18.20;5.25;;;;;;;;;;5016937;28;20412;-80
2023/08/28 06:43:28;;;;;;;18.00;4.85;;;;;;;;;;4986334;28;20762;-80
2023/08/28 06:45:55;;;;;;;18.42;4.90;;;;;;;;;;5016652;28;20406;-79
2023/08/28 06:48:22;;;;;;;19.13;5.50;;;;;;;;;;4993154;28;20787;-80
2023/08/28 06:50:51;;;;;;;20.00;4.72;;;;;;;;;;4981003;28;20420;-80
2023/08/28 06:53:19;;;;;;;16.75;4.40;;;;;;;;;;4982971;28;20497;-79
2023/08/28 06:55:47;;;;;;;17.30;4.40;;;;;;;;;;4985556;28;20473;-79
2023/08/28 06:58:14;;;;;;;17.50;4.85;;;;;;;;;;5007171;28;20453;-79
2023/08/28 07:00:42;;;;;;;17.90;4.60;;;;;;;;;;5015697;28;20454;-80
2023/08/28 07:03:09;;;;;;;15.60;4.00;;;;;;;;;;4993212;28;20827;-80
2023/08/28 07:05:36;;;;;;;16.00;4.03;;;;;;;;;;4986199;28;20472;-80
2023/08/28 07:08:03;;;;;;;16.90;4.87;;;;;;;;;;4988847;28;20565;-80
2023/08/28 07:10:33;;;;;;;18.13;5.43;;;;;;;;;;4989877;28;20549;-80
2023/08/28 07:13:00;;;;;;;19.83;5.20;;;;;;;;;;4980077;28;20451;-80
2023/08/28 07:15:49;;;;;;;21.00;5.60;;;;;;;;;;4986077;28;20465;-79
2023/08/28 07:18:16;;;;;;;16.90;5.00;;;;;;;;;;4985121;28;20507;-80
2023/08/28 07:20:43;;;;;;;18.10;4.47;;;;;;;;;;4984740;28;20526;-80
2023/08/28 07:23:10;;;;;;;19.23;4.97;;;;;;;;;;4983470;28;20471;-79
2023/08/28 07:25:38;;;;;;;17.80;4.73;;;;;;;;;;5009734;28;20444;-82
2023/08/28 07:28:06;;;;;;;19.00;4.80;;;;;;;;;;4987799;28;20527;-77
2023/08/28 07:30:32;;;;;;;17.90;4.47;;;;;;;;;;4990581;28;20492;-80
2023/08/28 07:32:59;;;;;;;18.10;5.57;;;;;;;;;;4992702;28;20935;-80
2023/08/28 07:35:29;;;;;;;17.00;5.00;;;;;;;;;;4967350;28;21103;-80
2023/08/28 07:37:57;;;;;;;21.17;6.17;;;;;;;;;;4982873;28;20488;-79
2023/08/28 07:40:25;;;;;;;17.42;5.03;;;;;;;;;;5015455;28;20421;-80
2023/08/28 07:42:56;;;;;;;16.00;4.43;;;;;;;;;;5016575;28;20212;-78
2023/08/28 07:45:22;;;;;;;17.93;5.30;;;;;;;;;;5000978;28;20514;-80
2023/08/28 07:47:50;;;;;;;16.50;4.23;;;;;;;;;;4964728;28;21015;-80
2023/08/28 07:50:16;;;;;;;23.33;5.10;;;;;;;;;;4983487;28;20440;-80
2023/08/28 07:52:44;;;;;;;17.97;4.63;;;;;;;;;;4983072;28;20971;-78
2023/08/28 07:55:11;;;;;;;16.20;4.20;;;;;;;;;;5017089;28;20447;-80
2023/08/28 07:57:38;;;;;;;17.00;4.90;;;;;;;;;;4982276;28;20885;-79
2023/08/28 08:00:10;;;;;;;21.97;4.60;;;;;;;;;;4998809;28;20460;-77
2023/08/28 08:02:40;;;;;;;16.13;4.20;;;;;;;;;;4989489;28;20962;-79
2023/08/28 08:05:11;;;;;;;15.77;3.90;;;;;;;;;;4984968;28;20441;-79
2023/08/28 08:07:41;;;;;;;18.70;4.37;;;;;;;;;;4991145;28;20870;-79
2023/08/28 08:10:08;;;;;;;16.57;4.23;;;;;;;;;;4983486;28;20943;-78
2023/08/28 08:12:35;;;;;;;16.80;3.90;;;;;;;;;;4984675;28;20472;-77
2023/08/28 08:15:04;;;;;;;15.87;3.70;;;;;;;;;;4990332;28;20919;-81
2023/08/28 08:17:33;;;;;;;16.50;4.20;;;;;;;;;;4981195;28;20791;-80
2023/08/28 08:19:59;;;;;;;18.03;4.07;;;;;;;;;;4982991;28;20477;-78
2023/08/28 08:22:27;;;;;;;17.37;3.93;;;;;;;;;;4992116;28;20808;-79
2023/08/28 08:24:54;;;;;;;15.40;3.47;;;;;;;;;;5001751;28;20807;-80
2023/08/28 08:27:25;;;;;;;15.27;3.70;;;;;;;;;;4986520;28;20958;-76
2023/08/28 08:29:52;;;;;;;17.93;3.60;;;;;;;;;;5019640;28;20565;-79
2023/08/28 08:32:19;;;;;;;17.90;3.60;;;;;;;;;;4982433;28;20464;-80
2023/08/28 08:34:46;;;;;;;21.83;3.70;;;;;;;;;;4987491;28;20439;-76
2023/08/28 08:37:14;;;;;;;16.90;3.23;;;;;;;;;;4998971;28;20595;-77
2023/08/28 08:39:41;;;;;;;14.20;2.83;;;;;;;;;;4990230;28;20459;-78
2023/08/28 08:42:08;;;;;;;15.50;3.00;;;;;;;;;;4982496;28;20567;-77
2023/08/28 08:44:37;;;;;;;17.50;3.67;;;;;;;;;;4985888;28;20454;-79
2023/08/28 08:47:04;;;;;;;16.43;4.20;;;;;;;;;;4981197;28;20443;-79
2023/08/28 08:49:32;;;;;;;15.20;3.23;;;;;;;;;;5015547;28;20482;-79
2023/08/28 08:52:04;;;;;;;15.70;3.33;;;;;;;;;;4983445;28;20459;-77
2023/08/28 08:54:34;;;;;;;15.53;3.33;;;;;;;;;;4998444;28;20440;-79
2023/08/28 08:57:04;;;;;;;15.83;3.47;;;;;;;;;;4992472;28;20493;-77
2023/08/28 08:59:32;;;;;;;15.93;2.60;;;;;;;;;;4992557;28;20452;-77
2023/08/28 09:02:02;;;;;;;16.63;2.90;;;;;;;;;;5000860;28;20474;-79
2023/08/28 09:04:30;;;;;;;14.60;2.40;;;;;;;;;;4983176;28;20454;-77
2023/08/28 09:06:58;;;;;;;15.73;2.37;;;;;;;;;;4990133;28;20442;-78
2023/08/28 09:09:27;;;;;;;13.97;2.57;;;;;;;;;;4991361;28;20474;-78
2023/08/28 09:11:54;;;;;;;14.70;2.60;;;;;;;;;;4989056;28;20446;-79
2023/08/28 09:14:21;;;;;;;14.60;2.67;;;;;;;;;;4980959;28;20538;-78
2023/08/28 09:16:48;;;;;;;15.70;3.00;;;;;;;;;;4991853;28;20530;-78
2023/08/28 09:19:17;;;;;;;14.00;2.40;;;;;;;;;;4981292;28;20948;-78
2023/08/28 09:21:46;;;;;;;14.87;2.73;;;;;;;;;;4985732;28;20501;-77
2023/08/28 09:24:12;;;;;;;16.60;3.40;;;;;;;;;;4980973;28;20461;-80
2023/08/28 09:26:49;;;;;;;14.30;2.43;;;;;;;;;;4985579;28;20421;-78
2023/08/28 09:29:19;;;;;;;13.63;2.00;;;;;;;;;;4980063;28;20448;-79
2023/08/28 09:31:47;;;;;;;14.17;2.50;;;;;;;;;;4981468;28;20446;-80
2023/08/28 09:34:14;;;;;;;14.90;2.30;;;;;;;;;;4990892;28;20473;-78
2023/08/28 09:36:41;;;;;;;15.53;2.33;;;;;;;;;;4983066;28;20882;-80
2023/08/28 09:39:12;;;;;;;15.03;2.10;;;;;;;;;;4980589;28;20453;-77
2023/08/28 09:41:40;;;;;;;17.10;2.40;;;;;;;;;;4983340;28;20365;-77
2023/08/28 09:44:08;;;;;;;15.02;2.20;;;;;;;;;;4980791;28;20447;-77
2023/08/28 09:46:35;;;;;;;13.80;2.13;;;;;;;;;;4990838;28;20208;-76
2023/08/28 09:49:02;;;;;;;15.10;2.28;;;;;;;;;;5000338;28;20445;-77
2023/08/28 09:51:40;;;;;;;15.65;1.85;;;;;;;;;;4996237;28;20416;-81
2023/08/28 09:54:07;;;;;;;16.80;2.50;;;;;;;;;;4990270;28;20223;-76
2023/08/28 09:56:34;;;;;;;16.80;2.20;;;;;;;;;;4978868;28;20427;-77
2023/08/28 09:59:03;;;;;;;16.00;2.00;;;;;;;;;;4987929;28;20487;-77
2023/08/28 10:01:31;;;;;;;15.97;2.10;;;;;;;;;;4979750;28;20409;-79
2023/08/28 10:03:59;;;;;;;16.02;1.90;;;;;;;;;;4978702;28;20840;-78
2023/08/28 10:06:28;;;;;;;15.88;2.10;;;;;;;;;;4981821;28;20412;-79
2023/08/28 10:08:58;;;;;;;14.68;1.80;;;;;;;;;;5011651;28;20516;-79
2023/08/28 10:11:25;;;;;;;14.60;1.60;;;;;;;;;;4989117;28;20903;-79
2023/08/28 10:13:53;;;;;;;15.23;1.90;;;;;;;;;;4980654;28;20940;-78
2023/08/28 10:16:24;;;;;;;14.63;1.70;;;;;;;;;;4981858;28;20904;-80
2023/08/28 10:18:59;;;;;;;14.20;1.70;;;;;;;;;;4995465;28;20407;-77
2023/08/28 10:21:27;;;;;;;15.57;2.00;;;;;;;;;;4979923;28;20502;-79
2023/08/28 10:23:55;;;;;;;14.60;1.70;;;;;;;;;;4981399;28;20414;-77
2023/08/28 10:26:23;;;;;;;14.70;1.80;;;;;;;;;;4978325;28;20455;-78
2023/08/28 10:28:50;;;;;;;15.68;1.95;;;;;;;;;;4984926;28;20431;-78
2023/08/28 10:31:18;;;;;;;15.30;1.88;;;;;;;;;;4989114;28;20501;-79
2023/08/28 10:33:46;;;;;;;14.18;1.50;;;;;;;;;;4988723;28;20442;-77
2023/08/28 10:36:13;;;;;;;15.68;2.10;;;;;;;;;;4979118;28;20515;-78
2023/08/28 10:39:00;;;;;;;15.82;1.80;;;;;;;;;;4981428;28;20447;-77
2023/08/28 10:41:28;;;;;;;15.60;1.90;;;;;;;;;;5012513;28;20410;-77
2023/08/28 10:43:55;;;;;;;14.70;1.87;;;;;;;;;;4979580;28;21020;-78
2023/08/28 10:46:22;;;;;;;15.40;1.70;;;;;;;;;;4982938;28;20425;-77
2023/08/28 10:48:56;;;;;;;14.98;1.83;;;;;;;;;;4986656;28;20428;-77
2023/08/28 10:51:28;;;;;;;14.93;1.70;;;;;;;;;;4988366;28;20424;-78
2023/08/28 10:53:58;;;;;;;15.15;1.50;;;;;;;;;;4979264;28;20406;-77
2023/08/28 10:56:24;;;;;;;14.40;1.60;;;;;;;;;;5012287;28;20435;-76
2023/08/28 10:58:51;;;;;;;14.60;1.60;;;;;;;;;;4985638;28;20406;-78
2023/08/28 11:01:18;;;;;;;14.30;1.40;;;;;;;;;;4989661;28;20431;-77
2023/08/28 11:03:58;;;;;;;14.40;1.80;;;;;;;;;;4979541;28;20410;-78
2023/08/28 11:06:36;;;;;;;14.27;1.50;;;;;;;;;;4982485;28;20422;-77
2023/08/28 11:09:18;;;;;;;13.88;1.40;;;;;;;;;;4979025;28;20495;-76
2023/08/28 11:11:45;;;;;;;14.43;1.70;;;;;;;;;;4981627;28;20673;-77
2023/08/28 11:14:13;;;;;;;14.52;1.40;;;;;;;;;;4978725;28;20513;-79
2023/08/28 11:16:40;;;;;;;14.20;1.50;;;;;;;;;;4985674;28;20414;-78
2023/08/28 11:19:08;;;;;;;15.00;1.40;;;;;;;;;;4987089;28;20854;-78
2023/08/28 11:21:39;;;;;;;13.70;1.30;;;;;;;;;;4983242;28;20478;-78
2023/08/28 11:24:15;;;;;;;14.80;1.70;;;;;;;;;;4998279;28;20468;-78
2023/08/28 11:26:43;;;;;;;15.70;1.30;;;;;;;;;;4999504;28;20422;-77
2023/08/28 11:29:24;;;;;;;14.90;1.30;;;;;;;;;;4992107;28;20426;-78
2023/08/28 11:31:51;;;;;;;14.20;1.40;;;;;;;;;;4981970;28;20402;-80
2023/08/28 11:34:19;;;;;;;16.30;1.60;;;;;;;;;;4990336;28;20420;-79
2023/08/28 11:36:46;;;;;;;14.10;1.40;;;;;;;;;;4985212;28;20446;-76
2023/08/28 11:39:19;;;;;;;14.50;1.60;;;;;;;;;;4982020;28;20411;-77
2023/08/28 11:41:47;;;;;;;14.30;1.50;;;;;;;;;;4982166;28;20442;-77
2023/08/28 11:44:14;;;;;;;14.10;1.30;;;;;;;;;;4982978;28;20573;-76
2023/08/28 11:46:41;;;;;;;14.93;1.50;;;;;;;;;;4970042;28;20439;-78
2023/08/28 11:49:10;;;;;;;14.40;1.50;;;;;;;;;;4993675;28;20435;-77
2023/08/28 11:51:41;;;;;;;14.00;1.45;;;;;;;;;;4980424;28;20420;-76
2023/08/28 11:54:07;;;;;;;14.38;1.60;;;;;;;;;;4980368;28;20508;-76
2023/08/28 11:56:34;;;;;;;15.00;1.37;;;;;;;;;;4986104;28;20411;-77
2023/08/28 11:59:01;;;;;;;14.63;1.20;;;;;;;;;;4986309;28;20423;-78
2023/08/28 12:01:28;;;;;;;15.03;1.60;;;;;;;;;;4979182;28;20430;-78
2023/08/28 12:03:58;;;;;;;14.70;1.33;;;;;;;;;;4984645;28;20521;-78
2023/08/28 12:06:25;;;;;;;14.00;1.40;;;;;;;;;;4981969;28;20927;-77
2023/08/28 12:08:53;;;;;;;14.20;1.70;;;;;;;;;;4991360;28;20513;-77
2023/08/28 12:11:20;;;;;;;14.13;1.33;;;;;;;;;;4981659;28;20939;-77
2023/08/28 12:13:47;;;;;;;14.90;1.40;;;;;;;;;;4980138;28;20412;-77
2023/08/28 12:16:17;;;;;;;13.70;1.20;;;;;;;;;;4979712;28;20416;-78
2023/08/28 12:18:44;;;;;;;13.73;1.30;;;;;;;;;;4987848;28;20500;-80
2023/08/28 12:21:11;;;;;;;14.30;1.50;;;;;;;;;;5006645;28;20423;-78
2023/08/28 12:23:44;;;;;;;13.68;1.30;;;;;;;;;;4985302;28;20922;-76
2023/08/28 12:26:12;;;;;;;13.95;1.50;;;;;;;;;;4980457;28;20458;-77
2023/08/28 12:28:40;;;;;;;13.85;1.38;;;;;;;;;;4981330;28;20416;-77
2023/08/28 12:31:08;;;;;;;13.93;1.70;;;;;;;;;;5000538;28;20790;-77
2023/08/28 12:33:38;;;;;;;13.55;1.30;;;;;;;;;;4991148;28;20494;-77
2023/08/28 12:36:05;;;;;;;13.77;1.40;;;;;;;;;;5008090;28;20912;-78
2023/08/28 12:38:43;;;;;;;14.70;1.40;;;;;;;;;;4987650;28;20415;-76
2023/08/28 12:41:11;;;;;;;14.65;1.33;;;;;;;;;;4976855;28;20408;-79
2023/08/28 12:43:39;;;;;;;13.70;1.20;;;;;;;;;;4985976;28;20889;-78
2023/08/28 12:46:06;;;;;;;13.80;1.30;;;;;;;;;;4989463;28;20502;-76
2023/08/28 12:48:32;;;;;;;14.38;1.30;;;;;;;;;;4978726;28;20427;-77
2023/08/28 12:50:59;;;;;;;14.70;1.52;;;;;;;;;;4990007;28;20422;-78
2023/08/28 12:53:26;;;;;;;14.30;1.23;;;;;;;;;;5010519;28;20548;-78
2023/08/28 12:55:55;;;;;;;14.32;1.30;;;;;;;;;;4982878;28;20420;-78
2023/08/28 12:58:24;;;;;;;15.70;1.60;;;;;;;;;;4982049;28;20416;-79
2023/08/28 13:00:51;;;;;;;14.32;1.30;;;;;;;;;;5010793;28;20925;-78
2023/08/28 13:03:17;;;;;;;14.05;1.20;;;;;;;;;;4985975;28;20753;-78
2023/08/28 13:05:44;;;;;;;13.85;1.20;;;;;;;;;;4990315;28;20509;-77
2023/08/28 13:08:11;;;;;;;14.60;1.30;;;;;;;;;;4988440;28;20411;-78
2023/08/28 13:10:38;;;;;;;13.70;1.30;;;;;;;;;;4989095;28;20809;-77
2023/08/28 13:13:04;;;;;;;14.30;1.20;;;;;;;;;;4981966;28;20420;-77
2023/08/28 13:15:33;;;;;;;15.55;1.67;;;;;;;;;;4981822;28;20417;-77
2023/08/28 13:18:01;;;;;;;14.40;1.30;;;;;;;;;;4977000;28;20412;-76
2023/08/28 13:20:28;;;;;;;13.77;1.15;;;;;;;;;;4980852;28;20401;-76
2023/08/28 13:22:54;;;;;;;13.90;1.20;;;;;;;;;;4987103;28;20418;-76
2023/08/28 13:25:21;;;;;;;15.90;1.30;;;;;;;;;;4981891;28;20455;-76
2023/08/28 13:27:48;;;;;;;13.90;1.40;;;;;;;;;;4982091;28;20513;-77
2023/08/28 13:30:15;;;;;;;14.30;1.33;;;;;;;;;;4989230;28;20670;-77
2023/08/28 13:32:47;;;;;;;13.95;1.50;;;;;;;;;;4979111;28;20461;-76
2023/08/28 13:35:14;;;;;;;13.80;1.70;;;;;;;;;;4974413;28;20426;-75
2023/08/28 13:37:41;;;;;;;13.70;1.20;;;;;;;;;;4981052;28;20577;-78
2023/08/28 13:40:08;;;;;;;14.10;1.20;;;;;;;;;;4978828;28;20417;-78
2023/08/28 13:42:35;;;;;;;14.15;1.50;;;;;;;;;;4980802;28;20467;-77
2023/08/28 13:45:03;;;;;;;14.77;1.50;;;;;;;;;;4984939;28;20474;-77
2023/08/28 13:47:29;;;;;;;14.82;1.70;;;;;;;;;;4983359;28;20497;-77
2023/08/28 13:49:57;;;;;;;14.57;1.30;;;;;;;;;;4978768;28;20428;-76
2023/08/28 13:52:24;;;;;;;14.63;1.50;;;;;;;;;;4982844;28;20923;-76
2023/08/28 13:54:51;;;;;;;13.60;1.20;;;;;;;;;;4979073;28;20600;-78
2023/08/28 13:57:18;;;;;;;14.50;1.48;;;;;;;;;;4982019;28;20510;-76
2023/08/28 13:59:44;;;;;;;14.55;1.40;;;;;;;;;;4983066;28;20456;-76
2023/08/28 14:02:12;;;;;;;14.18;1.50;;;;;;;;;;4983782;28;20492;-75
2023/08/28 14:04:41;;;;;;;13.70;1.40;;;;;;;;;;4983757;28;20996;-76
2023/08/28 14:07:10;;;;;;;14.00;1.25;;;;;;;;;;4983073;28;20421;-77
2023/08/28 14:09:37;;;;;;;14.48;1.40;;;;;;;;;;4979386;28;20897;-76
2023/08/28 14:12:04;;;;;;;13.90;1.40;;;;;;;;;;4982770;28;20476;-74
2023/08/28 14:14:31;;;;;;;14.00;1.30;;;;;;;;;;4984068;28;20426;-76
2023/08/28 14:16:58;;;;;;;14.10;1.50;;;;;;;;;;4981609;28;20422;-75
2023/08/28 14:19:24;;;;;;;14.93;1.33;;;;;;;;;;4987826;28;20774;-76
2023/08/28 14:21:51;;;;;;;14.40;1.20;;;;;;;;;;4980149;28;20416;-76
2023/08/28 14:24:19;;;;;;;13.70;1.40;;;;;;;;;;4980519;28;20505;-76
2023/08/28 14:26:46;;;;;;;13.80;1.30;;;;;;;;;;4978619;28;20414;-76
2023/08/28 14:29:13;;;;;;;14.10;1.52;;;;;;;;;;4980624;28;20425;-77
2023/08/28 14:31:40;;;;;;;14.25;1.45;;;;;;;;;;4978910;28;20496;-76
2023/08/28 14:34:07;;;;;;;13.80;1.35;;;;;;;;;;4981167;28;21024;-78